createdAt,value
2019-04-26T00:02:33.468Z,15.07
2019-04-26T00:05:02.676Z,15.70
2019-04-26T00:07:31.864Z,14.77
2019-04-26T00:10:01.505Z,14.77
2019-04-26T00:12:39.080Z,15.57
2019-04-26T00:15:14.296Z,14.13
2019-04-26T00:17:47.489Z,13.63
2019-04-26T00:20:17.127Z,13.67
2019-04-26T00:22:49.796Z,14.13
2019-04-26T00:25:18.988Z,13.63
2019-04-26T00:27:48.173Z,14.03
2019-04-26T00:30:19.147Z,14.60
2019-04-26T00:32:47.884Z,14.40
2019-04-26T00:35:17.823Z,13.80
2019-04-26T00:37:46.280Z,12.30
2019-04-26T00:40:16.231Z,13.63
2019-04-26T00:42:44.815Z,13.17
2019-04-26T00:45:14.904Z,12.27
2019-04-26T00:47:43.168Z,13.50
2019-04-26T00:50:13.787Z,12.97
2019-04-26T00:52:41.583Z,12.17
2019-04-26T00:55:10.773Z,12.40
2019-04-26T00:57:39.995Z,12.15
2019-04-26T01:00:09.417Z,12.40
2019-04-26T01:02:42.048Z,12.97
2019-04-26T01:05:11.304Z,12.87
2019-04-26T01:07:40.953Z,12.35
2019-04-26T01:10:10.163Z,12.83
2019-04-26T01:12:39.355Z,12.93
2019-04-26T01:15:08.541Z,12.93
2019-04-26T01:17:37.704Z,12.27
2019-04-26T01:20:08.140Z,12.70
2019-04-26T01:22:37.991Z,10.73
2019-04-26T01:25:07.208Z,11.53
2019-04-26T01:27:36.437Z,11.00
2019-04-26T01:30:06.609Z,11.47
2019-04-26T01:32:36.642Z,10.47
2019-04-26T01:35:05.819Z,12.37
2019-04-26T01:37:34.996Z,12.07
2019-04-26T01:40:04.454Z,11.20
2019-04-26T01:42:53.712Z,10.47
2019-04-26T01:45:29.030Z,11.00
2019-04-26T01:47:59.075Z,12.50
2019-04-26T01:50:29.399Z,14.00
2019-04-26T01:52:57.540Z,12.00
2019-04-26T01:55:29.082Z,14.23
2019-04-26T01:57:57.686Z,12.43
2019-04-26T02:00:37.244Z,14.40
2019-04-26T02:03:10.781Z,14.43
2019-04-26T02:05:39.983Z,15.20
2019-04-26T02:08:09.169Z,14.33
2019-04-26T02:10:38.372Z,15.07
2019-04-26T02:13:07.583Z,14.73
2019-04-26T02:15:36.764Z,14.73
2019-04-26T02:18:05.965Z,13.50
2019-04-26T02:20:40.791Z,13.70
2019-04-26T02:23:14.327Z,13.37
2019-04-26T02:25:43.555Z,12.83
2019-04-26T02:28:12.724Z,13.83
2019-04-26T02:30:41.921Z,13.37
2019-04-26T02:33:11.139Z,14.70
2019-04-26T02:35:40.398Z,15.27
2019-04-26T02:38:09.574Z,17.87
2019-04-26T02:40:38.759Z,18.43
2019-04-26T02:43:07.981Z,16.67
2019-04-26T02:45:44.255Z,16.87
2019-04-26T02:49:22.984Z,16.90
2019-04-26T02:51:54.860Z,18.70
2019-04-26T02:54:25.010Z,18.07
2019-04-26T02:56:54.199Z,16.33
2019-04-26T02:59:30.178Z,17.57
2019-04-26T03:01:58.022Z,18.90
2019-04-26T03:04:28.918Z,16.17
2019-04-26T03:07:03.431Z,15.20
2019-04-26T03:09:26.358Z,14.43
2019-04-26T03:11:55.569Z,15.37
2019-04-26T03:14:32.505Z,17.43
2019-04-26T03:17:06.673Z,15.57
2019-04-26T03:19:43.101Z,21.57
2019-04-26T03:22:16.476Z,27.23
2019-04-26T03:24:49.718Z,37.33
2019-04-26T03:27:32.682Z,40.37
2019-04-26T03:30:18.886Z,38.00
2019-04-26T03:32:40.716Z,38.83
2019-04-26T03:35:13.757Z,35.63
2019-04-26T03:37:52.110Z,32.83
2019-04-26T03:40:30.859Z,31.77
2019-04-26T03:43:11.753Z,25.67
2019-04-26T03:45:46.417Z,22.70
2019-04-26T03:48:20.605Z,22.20
2019-04-26T03:50:53.621Z,21.60
2019-04-26T03:53:27.646Z,22.10
2019-04-26T03:56:03.994Z,23.23
2019-04-26T03:58:40.477Z,24.87
2019-04-26T04:01:10.072Z,23.23
2019-04-26T04:03:46.138Z,22.53
2019-04-26T04:06:16.653Z,19.20
2019-04-26T04:08:48.155Z,18.17
2019-04-26T04:11:17.216Z,19.57
2019-04-26T04:13:51.451Z,19.40
2019-04-26T04:16:23.965Z,20.67
2019-04-26T04:18:56.628Z,19.80
2019-04-26T04:21:34.587Z,19.50
2019-04-26T04:24:05.102Z,19.03
2019-04-26T04:27:38.250Z,18.83
2019-04-26T04:30:09.237Z,22.70
2019-04-26T04:32:46.397Z,18.77
2019-04-26T04:35:14.792Z,20.15
2019-04-26T04:38:04.359Z,18.75
2019-04-26T04:40:27.565Z,19.87
2019-04-26T04:43:03.539Z,17.37
2019-04-26T04:45:53.739Z,19.15
2019-04-26T04:48:37.116Z,18.73
2019-04-26T04:51:10.947Z,17.48
2019-04-26T04:53:44.697Z,18.62
2019-04-26T04:56:20.836Z,20.00
2019-04-26T04:58:50.628Z,19.02
2019-04-26T05:01:54.097Z,19.07
2019-04-26T05:04:25.756Z,20.77
2019-04-26T05:07:29.655Z,20.25
2019-04-26T05:10:07.060Z,21.07
2019-04-26T05:12:39.827Z,23.20
2019-04-26T05:15:14.182Z,22.22
2019-04-26T05:17:51.545Z,23.00
2019-04-26T05:21:24.261Z,22.87
2019-04-26T05:24:05.455Z,22.15
2019-04-26T05:26:43.144Z,23.15
2019-04-26T05:29:20.902Z,22.60
2019-04-26T05:31:52.678Z,21.17
2019-04-26T05:34:26.151Z,21.60
2019-04-26T05:36:57.631Z,21.55
2019-04-26T05:39:28.679Z,20.82
2019-04-26T05:42:05.859Z,21.25
2019-04-26T05:44:39.465Z,21.35
2019-04-26T05:47:33.736Z,23.67
2019-04-26T05:50:13.646Z,20.70
2019-04-26T05:54:56.881Z,20.17
2019-04-26T05:57:32.056Z,19.52
2019-04-26T06:00:10.283Z,20.30
2019-04-26T06:02:52.661Z,20.20
2019-04-26T06:05:27.282Z,23.50
2019-04-26T06:08:09.912Z,20.97
2019-04-26T06:10:56.432Z,21.57
2019-04-26T06:13:34.982Z,20.82
2019-04-26T06:16:12.474Z,23.32
2019-04-26T06:18:51.705Z,21.97
2019-04-26T06:21:24.001Z,23.47
2019-04-26T06:23:59.902Z,21.82
2019-04-26T06:26:36.877Z,21.17
2019-04-26T06:29:08.112Z,20.62
2019-04-26T06:31:39.528Z,21.45
2019-04-26T06:34:11.797Z,21.73
2019-04-26T06:36:47.742Z,22.02
2019-04-26T06:39:28.418Z,21.52
2019-04-26T06:42:07.847Z,20.70
2019-04-26T06:45:48.625Z,18.98
2019-04-26T06:48:42.204Z,20.48
2019-04-26T06:51:24.060Z,18.82
2019-04-26T06:53:45.030Z,19.60
2019-04-26T06:56:19.222Z,19.00
2019-04-26T06:59:35.770Z,18.37
2019-04-26T07:01:56.541Z,18.42
2019-04-26T07:04:30.179Z,17.98
2019-04-26T07:07:09.215Z,17.15
2019-04-26T07:09:42.955Z,16.32
2019-04-26T07:12:24.190Z,16.35
2019-04-26T07:15:02.277Z,16.32
2019-04-26T07:17:39.431Z,15.15
2019-04-26T07:20:21.576Z,16.60
2019-04-26T07:24:05.834Z,15.95
2019-04-26T07:26:47.595Z,14.43
2019-04-26T07:29:24.348Z,14.20
2019-04-26T07:31:55.114Z,14.20
2019-04-26T07:34:33.948Z,13.28
2019-04-26T07:37:39.207Z,12.98
2019-04-26T07:40:25.133Z,13.35
2019-04-26T07:43:01.722Z,13.28
2019-04-26T07:45:37.972Z,13.00
2019-04-26T07:48:20.066Z,13.78
2019-04-26T07:50:57.895Z,14.87
2019-04-26T07:53:28.657Z,13.15
2019-04-26T07:56:03.617Z,12.63
2019-04-26T07:58:41.639Z,11.83
2019-04-26T08:01:16.045Z,13.15
2019-04-26T08:03:50.774Z,14.03
2019-04-26T08:06:22.915Z,13.05
2019-04-26T08:08:56.232Z,12.20
2019-04-26T08:11:29.886Z,11.95
2019-04-26T08:14:04.761Z,10.78
2019-04-26T08:16:40.872Z,11.00
2019-04-26T08:19:12.604Z,11.00
2019-04-26T08:21:42.768Z,10.95
2019-04-26T08:24:16.740Z,10.28
2019-04-26T08:26:46.473Z,10.38
2019-04-26T08:29:16.815Z,9.30
2019-04-26T08:31:44.960Z,9.90
2019-04-26T08:34:14.418Z,9.18
2019-04-26T08:36:47.713Z,10.48
2019-04-26T08:39:18.058Z,10.23
2019-04-26T08:41:46.676Z,8.88
2019-04-26T08:44:25.369Z,10.25
2019-04-26T08:47:06.024Z,8.60
2019-04-26T08:49:41.771Z,9.20
2019-04-26T08:52:14.683Z,9.73
2019-04-26T08:54:43.537Z,9.00
2019-04-26T08:57:12.734Z,8.83
2019-04-26T08:59:46.346Z,9.00
2019-04-26T09:02:21.819Z,9.40
2019-04-26T09:04:56.305Z,7.92
2019-04-26T09:07:28.502Z,8.38
2019-04-26T09:10:01.546Z,8.60
2019-04-26T09:12:28.262Z,8.20
2019-04-26T09:14:57.978Z,9.00
2019-04-26T09:17:27.706Z,8.38
2019-04-26T09:19:58.095Z,9.20
2019-04-26T09:22:34.096Z,8.93
2019-04-26T09:25:07.645Z,8.68
2019-04-26T09:27:42.511Z,9.20
2019-04-26T09:30:51.803Z,8.53
2019-04-26T09:33:27.389Z,9.20
2019-04-26T09:35:56.600Z,9.15
2019-04-26T09:38:25.799Z,8.88
2019-04-26T09:40:56.278Z,8.98
2019-04-26T09:43:30.466Z,9.70
2019-04-26T09:47:04.334Z,9.05
2019-04-26T09:49:41.146Z,8.35
2019-04-26T09:52:13.320Z,8.90
2019-04-26T09:54:42.509Z,8.95
2019-04-26T09:57:13.044Z,8.53
2019-04-26T09:59:42.298Z,8.33
2019-04-26T10:02:12.837Z,8.53
2019-04-26T10:04:42.094Z,9.50
2019-04-26T10:07:11.305Z,9.05
2019-04-26T10:09:40.528Z,8.93
2019-04-26T10:12:14.040Z,8.95
2019-04-26T10:14:50.809Z,9.45
2019-04-26T10:17:23.794Z,8.18
2019-04-26T10:19:54.532Z,8.30
2019-04-26T10:22:24.517Z,8.65
2019-04-26T10:24:53.693Z,9.45
2019-04-26T10:27:22.917Z,9.15
2019-04-26T10:29:56.545Z,9.68
2019-04-26T10:32:21.759Z,9.08
2019-04-26T10:34:50.852Z,8.78
2019-04-26T10:37:20.088Z,8.95
2019-04-26T10:39:49.330Z,9.65
2019-04-26T10:42:18.510Z,10.15
2019-04-26T10:44:47.717Z,10.50
2019-04-26T10:47:17.675Z,9.93
2019-04-26T10:49:46.873Z,10.08
2019-04-26T10:53:30.087Z,9.78
2019-04-26T10:56:06.401Z,9.70
2019-04-26T10:58:52.158Z,10.43
2019-04-26T11:01:21.622Z,10.03
2019-04-26T11:03:50.814Z,11.12
2019-04-26T11:06:20.024Z,11.20
2019-04-26T11:08:49.235Z,9.90
2019-04-26T11:11:19.689Z,11.30
2019-04-26T11:13:48.892Z,11.78
2019-04-26T11:16:18.179Z,12.03
2019-04-26T11:18:47.364Z,12.10
2019-04-26T11:21:20.694Z,11.50
2019-04-26T11:23:46.966Z,11.25
2019-04-26T11:26:16.613Z,11.88
2019-04-26T11:28:46.827Z,11.22
2019-04-26T11:31:16.068Z,11.57
2019-04-26T11:33:49.424Z,11.85
2019-04-26T11:36:15.764Z,10.53
2019-04-26T11:38:45.018Z,10.88
2019-04-26T11:41:14.234Z,10.93
2019-04-26T11:43:43.466Z,10.72
2019-04-26T11:46:12.705Z,12.13
2019-04-26T11:48:42.046Z,10.72
2019-04-26T11:51:11.270Z,11.33
2019-04-26T11:53:44.669Z,11.53
2019-04-26T11:56:10.985Z,10.25
2019-04-26T11:58:41.433Z,11.20
2019-04-26T12:01:10.685Z,10.70
2019-04-26T12:03:40.693Z,10.98
2019-04-26T12:06:15.196Z,10.48
2019-04-26T12:08:49.197Z,11.70
2019-04-26T12:11:26.262Z,11.55
2019-04-26T12:13:50.068Z,10.78
2019-04-26T12:16:20.501Z,11.03
2019-04-26T12:18:48.574Z,10.70
2019-04-26T12:21:17.869Z,11.60
2019-04-26T12:23:47.089Z,10.15
2019-04-26T12:26:17.322Z,10.13
2019-04-26T12:28:48.077Z,10.78
2019-04-26T12:31:17.327Z,10.88
2019-04-26T12:33:46.545Z,11.08
2019-04-26T12:36:15.797Z,13.35
2019-04-26T12:38:45.032Z,11.80
2019-04-26T12:41:17.283Z,11.53
2019-04-26T12:43:45.938Z,9.93
2019-04-26T12:46:22.627Z,10.32
2019-04-26T12:48:51.377Z,10.85
2019-04-26T12:51:20.252Z,10.00
2019-04-26T12:53:49.477Z,9.60
2019-04-26T12:56:18.704Z,10.48
2019-04-26T12:58:50.103Z,10.43
2019-04-26T13:01:17.169Z,9.85
2019-04-26T13:03:50.721Z,10.50
2019-04-26T13:06:20.049Z,10.03
2019-04-26T13:08:51.385Z,10.10
2019-04-26T13:11:25.902Z,10.82
2019-04-26T13:14:03.289Z,10.38
2019-04-26T13:16:39.669Z,9.90
2019-04-26T13:19:08.891Z,9.38
2019-04-26T13:21:38.886Z,10.13
2019-04-26T13:24:07.358Z,10.55
2019-04-26T13:26:36.597Z,9.15
2019-04-26T13:29:05.821Z,9.70
2019-04-26T13:31:35.044Z,9.63
2019-04-26T13:34:05.525Z,11.28
2019-04-26T13:36:34.822Z,11.03
2019-04-26T13:39:06.406Z,12.98
2019-04-26T13:41:38.720Z,12.00
2019-04-26T13:44:05.893Z,12.45
2019-04-26T13:46:39.581Z,11.90
2019-04-26T13:49:41.636Z,12.20
2019-04-26T13:52:10.859Z,12.53
2019-04-26T13:54:40.127Z,12.10
2019-04-26T13:57:10.178Z,13.10
2019-04-26T13:59:38.614Z,11.57
2019-04-26T14:02:11.826Z,12.93
2019-04-26T14:04:41.021Z,13.03
2019-04-26T14:07:06.432Z,13.00
2019-04-26T14:09:35.916Z,13.13
2019-04-26T14:12:17.891Z,12.40
2019-04-26T14:14:35.281Z,12.82
2019-04-26T14:17:04.894Z,12.13
2019-04-26T14:19:35.277Z,12.25
2019-04-26T14:22:07.067Z,13.25
2019-04-26T14:24:44.775Z,12.70
2019-04-26T14:27:22.019Z,12.93
2019-04-26T14:29:51.216Z,12.10
2019-04-26T14:32:22.837Z,11.45
2019-04-26T14:34:49.764Z,11.60
2019-04-26T14:37:18.991Z,12.10
2019-04-26T14:39:50.705Z,11.75
2019-04-26T14:42:17.558Z,12.07
2019-04-26T14:44:49.559Z,11.73
2019-04-26T14:47:17.912Z,11.85
2019-04-26T14:49:45.265Z,12.10
2019-04-26T14:52:14.529Z,11.28
2019-04-26T14:54:46.118Z,10.82
2019-04-26T14:57:19.952Z,11.70
2019-04-26T14:59:47.223Z,11.12
2019-04-26T15:02:20.494Z,11.90
2019-04-26T15:04:58.166Z,11.57
2019-04-26T15:07:24.321Z,11.03
2019-04-26T15:09:53.542Z,10.72
2019-04-26T15:12:22.879Z,11.35
2019-04-26T15:14:56.687Z,11.00
2019-04-26T15:17:26.475Z,10.98
2019-04-26T15:19:53.847Z,11.12
2019-04-26T15:22:24.424Z,10.60
2019-04-26T15:24:53.051Z,10.15
2019-04-26T15:27:22.272Z,10.18
2019-04-26T15:29:52.486Z,10.48
2019-04-26T15:32:20.821Z,10.80
2019-04-26T15:34:50.095Z,10.35
2019-04-26T15:37:25.025Z,10.38
2019-04-26T15:39:58.097Z,11.43
2019-04-26T15:42:29.227Z,10.32
2019-04-26T15:45:01.815Z,11.15
2019-04-26T15:47:36.153Z,10.45
2019-04-26T15:50:10.149Z,10.63
2019-04-26T15:52:38.836Z,10.60
2019-04-26T15:55:08.071Z,10.28
2019-04-26T15:57:37.282Z,10.20
2019-04-26T16:00:06.557Z,10.55
2019-04-26T16:02:35.762Z,10.68
2019-04-26T16:05:06.188Z,10.00
2019-04-26T16:07:35.435Z,10.78
2019-04-26T16:10:04.810Z,9.73
2019-04-26T16:12:35.378Z,9.93
2019-04-26T16:15:06.513Z,10.08
2019-04-26T16:17:36.316Z,9.68
2019-04-26T16:20:03.238Z,10.45
2019-04-26T16:22:33.194Z,10.45
2019-04-26T16:25:05.424Z,10.95
2019-04-26T16:27:34.598Z,9.80
2019-04-26T16:30:07.446Z,10.23
2019-04-26T16:32:52.635Z,10.45
2019-04-26T16:35:25.607Z,10.75
2019-04-26T16:37:52.129Z,10.20
2019-04-26T16:40:20.354Z,10.28
2019-04-26T16:42:57.052Z,10.13
2019-04-26T16:45:20.188Z,10.70
2019-04-26T16:47:49.431Z,10.18
2019-04-26T16:50:23.208Z,9.95
2019-04-26T16:52:48.004Z,8.83
2019-04-26T16:55:20.954Z,9.30
2019-04-26T16:57:53.767Z,10.15
2019-04-26T17:00:16.585Z,9.80
2019-04-26T17:02:45.421Z,9.85
2019-04-26T17:05:21.061Z,9.38
2019-04-26T17:07:45.955Z,9.38
2019-04-26T17:10:16.563Z,9.58
2019-04-26T17:12:46.273Z,10.05
2019-04-26T17:15:13.267Z,9.63
2019-04-26T17:17:45.224Z,10.58
2019-04-26T17:20:11.959Z,9.58
2019-04-26T17:22:56.886Z,9.98
2019-04-26T17:25:24.441Z,9.50
2019-04-26T17:27:52.902Z,10.32
2019-04-26T17:30:22.098Z,10.68
2019-04-26T17:32:52.962Z,9.78
2019-04-26T17:35:20.733Z,10.05
2019-04-26T17:37:50.312Z,10.78
2019-04-26T17:40:25.053Z,10.13
2019-04-26T17:42:48.932Z,10.03
2019-04-26T17:45:18.131Z,10.82
2019-04-26T17:47:47.332Z,10.93
2019-04-26T17:50:16.800Z,11.43
2019-04-26T17:52:46.088Z,10.93
2019-04-26T17:55:15.862Z,10.63
2019-04-26T17:57:48.413Z,10.25
2019-04-26T18:00:15.723Z,10.40
2019-04-26T18:02:47.977Z,9.83
2019-04-26T18:05:13.043Z,11.28
2019-04-26T18:07:50.318Z,10.95
2019-04-26T18:10:12.601Z,10.75
2019-04-26T18:12:43.307Z,10.15
2019-04-26T18:15:16.791Z,11.38
2019-04-26T18:17:54.541Z,10.25
2019-04-26T18:20:28.506Z,11.12
2019-04-26T18:23:03.491Z,10.53
2019-04-26T18:25:30.868Z,10.13
2019-04-26T18:28:00.085Z,10.48
2019-04-26T18:30:29.313Z,10.63
2019-04-26T18:32:58.524Z,10.18
2019-04-26T18:35:27.730Z,10.60
2019-04-26T18:37:58.252Z,11.70
2019-04-26T18:40:27.859Z,13.50
2019-04-26T18:42:57.121Z,11.28
2019-04-26T18:45:29.827Z,13.15
2019-04-26T18:48:01.323Z,12.18
2019-04-26T18:50:28.424Z,13.90
2019-04-26T18:53:03.784Z,16.00
2019-04-26T18:55:34.531Z,20.55
2019-04-26T18:58:05.597Z,17.50
2019-04-26T19:00:37.818Z,16.35
2019-04-26T19:03:07.053Z,17.10
2019-04-26T19:05:36.274Z,16.12
2019-04-26T19:08:12.841Z,16.00
2019-04-26T19:10:43.177Z,14.90
2019-04-26T19:13:16.790Z,15.83
2019-04-26T19:15:54.615Z,16.35
2019-04-26T19:18:33.640Z,18.48
2019-04-26T19:21:06.125Z,19.10
2019-04-26T19:23:35.382Z,20.08
2019-04-26T19:26:04.648Z,20.72
2019-04-26T19:28:35.993Z,21.00
2019-04-26T19:31:03.141Z,17.98
2019-04-26T19:33:32.428Z,15.85
2019-04-26T19:36:10.085Z,19.45
2019-04-26T19:38:39.300Z,20.90
2019-04-26T19:41:08.520Z,15.48
2019-04-26T19:43:39.224Z,15.15
2019-04-26T19:46:17.103Z,14.85
2019-04-26T19:50:54.431Z,21.52
2019-04-26T19:53:35.414Z,15.23
2019-04-26T19:56:11.317Z,16.62
2019-04-26T19:58:45.848Z,15.63
2019-04-26T20:01:16.602Z,16.15
2019-04-26T20:03:43.227Z,15.00
2019-04-26T20:06:18.778Z,15.55
2019-04-26T20:08:49.578Z,15.83
2019-04-26T20:11:18.917Z,14.83
2019-04-26T20:13:47.030Z,14.78
2019-04-26T20:16:15.378Z,15.00
2019-04-26T20:18:44.615Z,15.23
2019-04-26T20:21:15.464Z,14.05
2019-04-26T20:23:47.381Z,16.40
2019-04-26T20:26:14.103Z,16.57
2019-04-26T20:28:43.347Z,15.38
2019-04-26T20:31:19.387Z,17.00
2019-04-26T20:33:48.729Z,15.10
2019-04-26T20:36:23.327Z,15.50
2019-04-26T20:38:52.545Z,13.38
2019-04-26T20:41:24.930Z,14.33
2019-04-26T20:44:05.137Z,15.38
2019-04-26T20:46:25.202Z,13.88
2019-04-26T20:48:54.097Z,13.10
2019-04-26T20:51:24.152Z,14.80
2019-04-26T20:53:56.730Z,15.23
2019-04-26T20:56:31.726Z,14.87
2019-04-26T20:59:01.482Z,13.10
2019-04-26T21:01:29.200Z,14.68
2019-04-26T21:04:02.026Z,14.60
2019-04-26T21:06:36.923Z,14.53
2019-04-26T21:09:06.429Z,15.40
2019-04-26T21:11:38.202Z,15.53
2019-04-26T21:14:07.656Z,15.35
2019-04-26T21:16:33.891Z,14.60
2019-04-26T21:19:03.086Z,13.48
2019-04-26T21:21:32.313Z,14.53
2019-04-26T21:24:05.397Z,16.60
2019-04-26T21:26:46.653Z,15.03
2019-04-26T21:29:20.437Z,15.63
2019-04-26T21:32:51.441Z,14.28
2019-04-26T21:35:26.635Z,11.53
2019-04-26T21:37:56.519Z,12.95
2019-04-26T21:40:31.260Z,11.15
2019-04-26T21:43:03.115Z,12.20
2019-04-26T21:45:31.169Z,12.23
2019-04-26T21:48:02.613Z,13.10
2019-04-26T21:50:35.818Z,13.38
2019-04-26T21:53:03.425Z,12.80
2019-04-26T21:55:35.295Z,13.62
2019-04-26T21:57:59.805Z,13.18
2019-04-26T22:00:34.529Z,13.03
2019-04-26T22:03:03.875Z,11.75
2019-04-26T22:05:35.083Z,13.18
2019-04-26T22:08:03.759Z,12.18
2019-04-26T22:10:39.519Z,12.20
2019-04-26T22:13:06.386Z,12.65
2019-04-26T22:15:39.207Z,12.43
2019-04-26T22:18:15.327Z,12.05
2019-04-26T22:20:50.997Z,14.10
2019-04-26T22:23:25.413Z,13.30
2019-04-26T22:25:56.004Z,13.00
2019-04-26T22:28:26.791Z,12.35
2019-04-26T22:30:55.132Z,13.32
2019-04-26T22:33:23.475Z,13.28
2019-04-26T22:35:55.254Z,12.10
2019-04-26T22:38:26.595Z,12.53
2019-04-26T22:40:56.105Z,13.53
2019-04-26T22:43:29.796Z,12.65
2019-04-26T22:46:28.221Z,12.78
2019-04-26T22:48:54.707Z,12.23
2019-04-26T22:51:19.006Z,11.00
2019-04-26T22:53:48.324Z,14.10
2019-04-26T22:56:17.609Z,13.53
2019-04-26T22:58:46.897Z,12.95
2019-04-26T23:01:16.180Z,12.20
2019-04-26T23:03:46.588Z,12.60
2019-04-26T23:06:15.338Z,12.95
2019-04-26T23:08:44.002Z,12.18
2019-04-26T23:11:13.505Z,13.32
2019-04-26T23:14:48.162Z,13.22
2019-04-26T23:17:52.904Z,11.73
2019-04-26T23:20:29.231Z,11.85
2019-04-26T23:22:56.622Z,12.28
2019-04-26T23:25:27.700Z,11.90
2019-04-26T23:27:58.288Z,13.10
2019-04-26T23:30:27.733Z,15.70
2019-04-26T23:32:54.948Z,19.52
2019-04-26T23:35:24.264Z,17.87
2019-04-26T23:37:56.651Z,19.25
2019-04-26T23:40:25.743Z,21.80
2019-04-26T23:42:54.473Z,23.73
2019-04-26T23:45:23.685Z,20.23
2019-04-26T23:47:53.049Z,16.83
2019-04-26T23:50:25.568Z,17.42
2019-04-26T23:52:53.065Z,15.88
2019-04-26T23:55:20.876Z,17.10
2019-04-26T23:57:50.126Z,17.00
